Terminal Aerodrome Forecast
Issued by NWS Upton, NY

Home | Current Version | Previous Version | Text Only | Print | Product List | Glossary On
Versions: 1 2 3 4 5 6 7 8 9 10 11 12 13 14 15 16 17 18 19 20 21 22 23 24 25 26 27 28 29 30
739
FTUS41 KOKX 291934 AAA
TAFJFK
TAF AMD
KJFK 291934Z 2920/3024 09007KT P6SM BKN015 OVC025
      TEMPO 2920/2924 SCT015 OVC025
     FM300300 11005KT 5SM -DZ BR BKN009 OVC012
     FM300700 12005KT 3SM -DZ BR OVC005
     FM301400 13006KT 6SM BR OVC015
     FM301600 14010KT P6SM BKN020=

USA.gov is the U.S. government's official web portal to all federal, state and local government web resources and services.